sensor_id;sensor_type;location;lat;lon;timestamp;P1;durP1;ratioP1;P2;durP2;ratioP2
37753;SDS011;23596;52.520;13.464;2023-05-29T00:00:47;14.30;;;4.40;;
37753;SDS011;23596;52.520;13.464;2023-05-29T00:03:12;17.90;;;5.20;;
37753;SDS011;23596;52.520;13.464;2023-05-29T00:05:38;16.75;;;4.53;;
37753;SDS011;23596;52.520;13.464;2023-05-29T00:08:04;14.63;;;4.53;;
37753;SDS011;23596;52.520;13.464;2023-05-29T00:10:31;19.98;;;5.60;;
37753;SDS011;23596;52.520;13.464;2023-05-29T00:12:57;13.65;;;5.20;;
37753;SDS011;23596;52.520;13.464;2023-05-29T00:15:22;12.77;;;4.33;;
37753;SDS011;23596;52.520;13.464;2023-05-29T00:17:48;26.37;;;5.33;;
37753;SDS011;23596;52.520;13.464;2023-05-29T00:20:14;13.60;;;4.53;;
37753;SDS011;23596;52.520;13.464;2023-05-29T00:22:40;14.40;;;4.75;;
37753;SDS011;23596;52.520;13.464;2023-05-29T00:25:07;20.00;;;5.07;;
37753;SDS011;23596;52.520;13.464;2023-05-29T00:27:33;16.63;;;5.80;;
37753;SDS011;23596;52.520;13.464;2023-05-29T00:29:59;13.20;;;4.03;;
37753;SDS011;23596;52.520;13.464;2023-05-29T00:32:26;16.88;;;4.63;;
37753;SDS011;23596;52.520;13.464;2023-05-29T00:34:52;14.27;;;4.70;;
37753;SDS011;23596;52.520;13.464;2023-05-29T00:37:18;15.70;;;4.70;;
37753;SDS011;23596;52.520;13.464;2023-05-29T00:39:46;18.15;;;5.28;;
37753;SDS011;23596;52.520;13.464;2023-05-29T00:42:12;13.73;;;4.67;;
37753;SDS011;23596;52.520;13.464;2023-05-29T00:44:38;20.05;;;4.63;;
37753;SDS011;23596;52.520;13.464;2023-05-29T00:47:03;11.57;;;4.55;;
37753;SDS011;23596;52.520;13.464;2023-05-29T00:49:29;12.27;;;4.55;;
37753;SDS011;23596;52.520;13.464;2023-05-29T00:51:55;14.80;;;4.55;;
37753;SDS011;23596;52.520;13.464;2023-05-29T00:54:21;14.95;;;5.18;;
37753;SDS011;23596;52.520;13.464;2023-05-29T00:56:51;15.25;;;4.85;;
37753;SDS011;23596;52.520;13.464;2023-05-29T00:59:17;17.38;;;4.47;;
37753;SDS011;23596;52.520;13.464;2023-05-29T01:01:46;14.25;;;5.25;;
37753;SDS011;23596;52.520;13.464;2023-05-29T01:04:16;20.33;;;5.30;;
37753;SDS011;23596;52.520;13.464;2023-05-29T01:06:42;17.05;;;4.70;;
37753;SDS011;23596;52.520;13.464;2023-05-29T01:09:09;18.40;;;4.40;;
37753;SDS011;23596;52.520;13.464;2023-05-29T01:17:24;12.95;;;4.50;;
37753;SDS011;23596;52.520;13.464;2023-05-29T01:20:18;17.42;;;5.30;;
37753;SDS011;23596;52.520;13.464;2023-05-29T01:26:11;14.82;;;5.47;;
37753;SDS011;23596;52.520;13.464;2023-05-29T01:29:02;17.17;;;5.00;;
37753;SDS011;23596;52.520;13.464;2023-05-29T01:31:31;17.55;;;4.40;;
37753;SDS011;23596;52.520;13.464;2023-05-29T01:33:59;16.35;;;4.75;;
37753;SDS011;23596;52.520;13.464;2023-05-29T01:36:25;13.63;;;4.70;;
37753;SDS011;23596;52.520;13.464;2023-05-29T01:38:52;18.45;;;5.50;;
37753;SDS011;23596;52.520;13.464;2023-05-29T01:41:20;17.10;;;5.15;;
37753;SDS011;23596;52.520;13.464;2023-05-29T01:43:46;22.88;;;4.88;;
37753;SDS011;23596;52.520;13.464;2023-05-29T01:46:13;21.50;;;6.25;;
37753;SDS011;23596;52.520;13.464;2023-05-29T01:48:40;17.52;;;5.70;;
37753;SDS011;23596;52.520;13.464;2023-05-29T01:51:06;27.63;;;5.05;;
37753;SDS011;23596;52.520;13.464;2023-05-29T01:53:33;21.27;;;4.95;;
37753;SDS011;23596;52.520;13.464;2023-05-29T01:55:59;22.70;;;5.72;;
37753;SDS011;23596;52.520;13.464;2023-05-29T01:58:25;21.83;;;5.20;;
37753;SDS011;23596;52.520;13.464;2023-05-29T02:00:53;12.52;;;4.57;;
37753;SDS011;23596;52.520;13.464;2023-05-29T02:03:20;13.38;;;4.82;;
37753;SDS011;23596;52.520;13.464;2023-05-29T02:05:46;22.10;;;5.47;;
37753;SDS011;23596;52.520;13.464;2023-05-29T02:08:12;18.63;;;5.45;;
37753;SDS011;23596;52.520;13.464;2023-05-29T02:10:37;14.87;;;5.10;;
37753;SDS011;23596;52.520;13.464;2023-05-29T02:13:03;21.00;;;5.55;;
37753;SDS011;23596;52.520;13.464;2023-05-29T02:15:28;16.80;;;5.47;;
37753;SDS011;23596;52.520;13.464;2023-05-29T02:17:54;18.47;;;5.60;;
37753;SDS011;23596;52.520;13.464;2023-05-29T02:20:20;20.07;;;5.33;;
37753;SDS011;23596;52.520;13.464;2023-05-29T02:22:46;18.63;;;5.97;;
37753;SDS011;23596;52.520;13.464;2023-05-29T02:25:12;38.97;;;6.20;;
37753;SDS011;23596;52.520;13.464;2023-05-29T02:27:37;16.13;;;5.63;;
37753;SDS011;23596;52.520;13.464;2023-05-29T02:30:03;18.35;;;5.63;;
37753;SDS011;23596;52.520;13.464;2023-05-29T02:34:55;17.67;;;5.30;;
37753;SDS011;23596;52.520;13.464;2023-05-29T02:37:22;20.92;;;5.63;;
37753;SDS011;23596;52.520;13.464;2023-05-29T02:39:50;14.43;;;5.68;;
37753;SDS011;23596;52.520;13.464;2023-05-29T02:42:16;22.63;;;6.18;;
37753;SDS011;23596;52.520;13.464;2023-05-29T02:44:42;17.33;;;5.68;;
37753;SDS011;23596;52.520;13.464;2023-05-29T02:47:08;18.73;;;5.70;;
37753;SDS011;23596;52.520;13.464;2023-05-29T02:49:33;21.55;;;6.03;;
37753;SDS011;23596;52.520;13.464;2023-05-29T02:51:59;24.73;;;6.43;;
37753;SDS011;23596;52.520;13.464;2023-05-29T02:54:25;22.08;;;5.93;;
37753;SDS011;23596;52.520;13.464;2023-05-29T02:56:51;23.75;;;6.32;;
37753;SDS011;23596;52.520;13.464;2023-05-29T02:59:17;17.77;;;5.90;;
37753;SDS011;23596;52.520;13.464;2023-05-29T03:01:42;23.35;;;6.25;;
37753;SDS011;23596;52.520;13.464;2023-05-29T03:04:09;23.70;;;5.78;;
37753;SDS011;23596;52.520;13.464;2023-05-29T03:06:35;19.23;;;5.63;;
37753;SDS011;23596;52.520;13.464;2023-05-29T03:09:04;16.02;;;5.85;;
37753;SDS011;23596;52.520;13.464;2023-05-29T03:11:30;20.48;;;6.15;;
37753;SDS011;23596;52.520;13.464;2023-05-29T03:13:58;17.42;;;6.13;;
37753;SDS011;23596;52.520;13.464;2023-05-29T03:16:24;25.08;;;6.13;;
37753;SDS011;23596;52.520;13.464;2023-05-29T03:18:50;22.42;;;6.53;;
37753;SDS011;23596;52.520;13.464;2023-05-29T03:21:16;21.15;;;5.80;;
37753;SDS011;23596;52.520;13.464;2023-05-29T03:23:42;14.93;;;6.17;;
37753;SDS011;23596;52.520;13.464;2023-05-29T03:26:08;17.25;;;5.57;;
37753;SDS011;23596;52.520;13.464;2023-05-29T03:28:33;20.23;;;5.20;;
37753;SDS011;23596;52.520;13.464;2023-05-29T03:30:59;22.88;;;6.55;;
37753;SDS011;23596;52.520;13.464;2023-05-29T03:33:25;16.35;;;5.68;;
37753;SDS011;23596;52.520;13.464;2023-05-29T03:35:51;28.27;;;6.50;;
37753;SDS011;23596;52.520;13.464;2023-05-29T03:38:16;15.00;;;5.68;;
37753;SDS011;23596;52.520;13.464;2023-05-29T03:40:42;21.60;;;5.40;;
37753;SDS011;23596;52.520;13.464;2023-05-29T03:43:08;24.25;;;6.20;;
37753;SDS011;23596;52.520;13.464;2023-05-29T03:45:33;17.83;;;6.38;;
37753;SDS011;23596;52.520;13.464;2023-05-29T03:47:59;21.05;;;6.13;;
37753;SDS011;23596;52.520;13.464;2023-05-29T03:50:25;21.77;;;5.90;;
37753;SDS011;23596;52.520;13.464;2023-05-29T03:52:50;22.52;;;6.35;;
37753;SDS011;23596;52.520;13.464;2023-05-29T03:55:16;13.20;;;5.40;;
37753;SDS011;23596;52.520;13.464;2023-05-29T03:57:41;16.37;;;5.27;;
37753;SDS011;23596;52.520;13.464;2023-05-29T04:00:07;17.00;;;5.32;;
37753;SDS011;23596;52.520;13.464;2023-05-29T04:02:35;19.13;;;5.97;;
37753;SDS011;23596;52.520;13.464;2023-05-29T04:05:02;15.15;;;4.93;;
37753;SDS011;23596;52.520;13.464;2023-05-29T04:07:28;17.45;;;5.70;;
37753;SDS011;23596;52.520;13.464;2023-05-29T04:09:54;17.13;;;5.40;;
37753;SDS011;23596;52.520;13.464;2023-05-29T04:12:20;11.93;;;6.18;;
37753;SDS011;23596;52.520;13.464;2023-05-29T04:14:45;18.05;;;5.72;;
37753;SDS011;23596;52.520;13.464;2023-05-29T04:17:11;18.73;;;5.28;;
37753;SDS011;23596;52.520;13.464;2023-05-29T04:19:36;14.20;;;5.15;;
37753;SDS011;23596;52.520;13.464;2023-05-29T04:22:02;14.48;;;5.78;;
37753;SDS011;23596;52.520;13.464;2023-05-29T04:24:28;13.88;;;5.30;;
37753;SDS011;23596;52.520;13.464;2023-05-29T04:26:53;14.02;;;5.15;;
37753;SDS011;23596;52.520;13.464;2023-05-29T04:29:19;14.45;;;5.05;;
37753;SDS011;23596;52.520;13.464;2023-05-29T04:31:44;12.25;;;4.85;;
37753;SDS011;23596;52.520;13.464;2023-05-29T04:34:10;14.52;;;5.68;;
37753;SDS011;23596;52.520;13.464;2023-05-29T04:36:35;16.77;;;5.27;;
37753;SDS011;23596;52.520;13.464;2023-05-29T04:39:04;17.02;;;5.18;;
37753;SDS011;23596;52.520;13.464;2023-05-29T04:41:31;13.60;;;4.60;;
37753;SDS011;23596;52.520;13.464;2023-05-29T04:43:57;18.20;;;4.97;;
37753;SDS011;23596;52.520;13.464;2023-05-29T04:46:23;18.15;;;5.70;;
37753;SDS011;23596;52.520;13.464;2023-05-29T04:48:52;13.95;;;4.90;;
37753;SDS011;23596;52.520;13.464;2023-05-29T04:51:18;13.38;;;4.78;;
37753;SDS011;23596;52.520;13.464;2023-05-29T04:53:47;14.63;;;4.75;;
37753;SDS011;23596;52.520;13.464;2023-05-29T04:56:15;14.77;;;5.10;;
37753;SDS011;23596;52.520;13.464;2023-05-29T04:58:41;13.00;;;4.95;;
37753;SDS011;23596;52.520;13.464;2023-05-29T05:01:07;14.13;;;5.22;;
37753;SDS011;23596;52.520;13.464;2023-05-29T05:03:39;12.63;;;4.70;;
37753;SDS011;23596;52.520;13.464;2023-05-29T05:06:05;15.55;;;4.97;;
37753;SDS011;23596;52.520;13.464;2023-05-29T05:10:59;12.38;;;4.70;;
37753;SDS011;23596;52.520;13.464;2023-05-29T05:13:25;14.15;;;5.15;;
37753;SDS011;23596;52.520;13.464;2023-05-29T05:15:51;15.40;;;4.23;;
37753;SDS011;23596;52.520;13.464;2023-05-29T05:18:17;13.43;;;4.47;;
37753;SDS011;23596;52.520;13.464;2023-05-29T05:20:43;11.75;;;4.78;;
37753;SDS011;23596;52.520;13.464;2023-05-29T05:23:09;13.93;;;5.00;;
37753;SDS011;23596;52.520;13.464;2023-05-29T05:25:35;14.75;;;5.60;;
37753;SDS011;23596;52.520;13.464;2023-05-29T05:28:01;17.53;;;5.07;;
37753;SDS011;23596;52.520;13.464;2023-05-29T05:30:28;16.02;;;4.85;;
37753;SDS011;23596;52.520;13.464;2023-05-29T05:32:54;16.77;;;5.10;;
37753;SDS011;23596;52.520;13.464;2023-05-29T05:35:20;11.33;;;3.80;;
37753;SDS011;23596;52.520;13.464;2023-05-29T05:37:46;8.38;;;4.07;;
37753;SDS011;23596;52.520;13.464;2023-05-29T05:40:11;14.93;;;4.53;;
37753;SDS011;23596;52.520;13.464;2023-05-29T05:42:37;10.60;;;3.67;;
37753;SDS011;23596;52.520;13.464;2023-05-29T05:45:03;9.50;;;4.10;;
37753;SDS011;23596;52.520;13.464;2023-05-29T05:47:31;8.27;;;3.97;;
37753;SDS011;23596;52.520;13.464;2023-05-29T05:49:57;8.37;;;4.10;;
37753;SDS011;23596;52.520;13.464;2023-05-29T05:52:23;14.55;;;4.82;;
37753;SDS011;23596;52.520;13.464;2023-05-29T05:54:50;10.45;;;3.92;;
37753;SDS011;23596;52.520;13.464;2023-05-29T05:57:16;9.70;;;3.50;;
37753;SDS011;23596;52.520;13.464;2023-05-29T05:59:42;9.63;;;3.13;;
37753;SDS011;23596;52.520;13.464;2023-05-29T06:02:08;9.38;;;3.35;;
37753;SDS011;23596;52.520;13.464;2023-05-29T06:04:33;7.60;;;2.88;;
37753;SDS011;23596;52.520;13.464;2023-05-29T06:06:59;6.10;;;3.00;;
37753;SDS011;23596;52.520;13.464;2023-05-29T06:09:25;7.05;;;2.97;;
37753;SDS011;23596;52.520;13.464;2023-05-29T06:11:51;10.93;;;3.33;;
37753;SDS011;23596;52.520;13.464;2023-05-29T06:14:16;10.35;;;3.72;;
37753;SDS011;23596;52.520;13.464;2023-05-29T06:16:42;9.03;;;3.73;;
37753;SDS011;23596;52.520;13.464;2023-05-29T06:19:08;6.65;;;3.58;;
37753;SDS011;23596;52.520;13.464;2023-05-29T06:21:33;9.52;;;3.13;;
37753;SDS011;23596;52.520;13.464;2023-05-29T06:23:59;6.00;;;2.80;;
37753;SDS011;23596;52.520;13.464;2023-05-29T06:26:25;12.57;;;3.10;;
37753;SDS011;23596;52.520;13.464;2023-05-29T06:28:51;5.68;;;2.53;;
37753;SDS011;23596;52.520;13.464;2023-05-29T06:31:17;8.95;;;2.67;;
37753;SDS011;23596;52.520;13.464;2023-05-29T06:33:44;6.65;;;2.58;;
37753;SDS011;23596;52.520;13.464;2023-05-29T06:36:10;10.23;;;3.03;;
37753;SDS011;23596;52.520;13.464;2023-05-29T06:38:36;3.95;;;2.15;;
37753;SDS011;23596;52.520;13.464;2023-05-29T06:41:02;7.60;;;2.83;;
37753;SDS011;23596;52.520;13.464;2023-05-29T06:43:28;5.97;;;2.87;;
37753;SDS011;23596;52.520;13.464;2023-05-29T06:45:54;7.05;;;2.72;;
37753;SDS011;23596;52.520;13.464;2023-05-29T06:48:20;8.67;;;2.73;;
37753;SDS011;23596;52.520;13.464;2023-05-29T06:50:47;5.63;;;2.57;;
37753;SDS011;23596;52.520;13.464;2023-05-29T06:53:13;6.68;;;3.00;;
37753;SDS011;23596;52.520;13.464;2023-05-29T06:55:38;7.72;;;2.63;;
37753;SDS011;23596;52.520;13.464;2023-05-29T06:58:05;7.60;;;2.15;;
37753;SDS011;23596;52.520;13.464;2023-05-29T07:00:31;4.75;;;2.15;;
37753;SDS011;23596;52.520;13.464;2023-05-29T07:02:57;6.18;;;2.60;;
37753;SDS011;23596;52.520;13.464;2023-05-29T07:05:22;6.55;;;2.30;;
37753;SDS011;23596;52.520;13.464;2023-05-29T07:07:48;7.70;;;2.80;;
37753;SDS011;23596;52.520;13.464;2023-05-29T07:10:14;3.57;;;1.67;;
37753;SDS011;23596;52.520;13.464;2023-05-29T07:12:40;7.95;;;2.38;;
37753;SDS011;23596;52.520;13.464;2023-05-29T07:15:05;4.50;;;2.17;;
37753;SDS011;23596;52.520;13.464;2023-05-29T07:17:32;7.00;;;2.47;;
37753;SDS011;23596;52.520;13.464;2023-05-29T07:19:57;7.43;;;2.20;;
37753;SDS011;23596;52.520;13.464;2023-05-29T07:22:23;5.18;;;2.47;;
37753;SDS011;23596;52.520;13.464;2023-05-29T07:24:49;6.68;;;2.13;;
37753;SDS011;23596;52.520;13.464;2023-05-29T07:27:15;8.13;;;2.20;;
37753;SDS011;23596;52.520;13.464;2023-05-29T07:29:40;4.22;;;1.83;;
37753;SDS011;23596;52.520;13.464;2023-05-29T07:32:06;4.95;;;2.25;;
37753;SDS011;23596;52.520;13.464;2023-05-29T07:34:32;6.43;;;2.63;;
37753;SDS011;23596;52.520;13.464;2023-05-29T07:37:01;8.70;;;3.22;;
37753;SDS011;23596;52.520;13.464;2023-05-29T07:39:31;10.50;;;2.47;;
37753;SDS011;23596;52.520;13.464;2023-05-29T07:41:58;4.80;;;2.28;;
37753;SDS011;23596;52.520;13.464;2023-05-29T07:44:26;7.68;;;2.30;;
37753;SDS011;23596;52.520;13.464;2023-05-29T07:46:51;5.63;;;2.20;;
37753;SDS011;23596;52.520;13.464;2023-05-29T07:49:17;7.57;;;2.30;;
37753;SDS011;23596;52.520;13.464;2023-05-29T07:51:44;12.73;;;6.75;;
37753;SDS011;23596;52.520;13.464;2023-05-29T07:54:10;20.38;;;10.98;;
37753;SDS011;23596;52.520;13.464;2023-05-29T07:56:36;8.10;;;4.00;;
37753;SDS011;23596;52.520;13.464;2023-05-29T07:59:02;10.52;;;4.80;;
37753;SDS011;23596;52.520;13.464;2023-05-29T08:01:28;15.48;;;3.70;;
37753;SDS011;23596;52.520;13.464;2023-05-29T08:03:54;5.85;;;3.10;;
37753;SDS011;23596;52.520;13.464;2023-05-29T08:06:20;12.37;;;3.20;;
37753;SDS011;23596;52.520;13.464;2023-05-29T08:08:46;6.37;;;2.60;;
37753;SDS011;23596;52.520;13.464;2023-05-29T08:11:12;6.30;;;2.67;;
37753;SDS011;23596;52.520;13.464;2023-05-29T08:13:38;11.18;;;2.60;;
37753;SDS011;23596;52.520;13.464;2023-05-29T08:16:03;3.65;;;2.17;;
37753;SDS011;23596;52.520;13.464;2023-05-29T08:18:30;4.82;;;2.75;;
37753;SDS011;23596;52.520;13.464;2023-05-29T08:20:57;5.38;;;2.33;;
37753;SDS011;23596;52.520;13.464;2023-05-29T08:23:23;7.30;;;2.53;;
37753;SDS011;23596;52.520;13.464;2023-05-29T08:25:50;5.20;;;3.05;;
37753;SDS011;23596;52.520;13.464;2023-05-29T08:28:16;7.53;;;2.53;;
37753;SDS011;23596;52.520;13.464;2023-05-29T08:30:41;4.10;;;2.33;;
37753;SDS011;23596;52.520;13.464;2023-05-29T08:33:07;8.98;;;2.55;;
37753;SDS011;23596;52.520;13.464;2023-05-29T08:35:33;6.80;;;2.90;;
37753;SDS011;23596;52.520;13.464;2023-05-29T08:37:59;7.53;;;3.00;;
37753;SDS011;23596;52.520;13.464;2023-05-29T08:40:25;6.43;;;2.30;;
37753;SDS011;23596;52.520;13.464;2023-05-29T08:42:52;4.47;;;2.55;;
37753;SDS011;23596;52.520;13.464;2023-05-29T08:45:24;6.38;;;2.60;;
37753;SDS011;23596;52.520;13.464;2023-05-29T08:47:51;5.45;;;3.00;;
37753;SDS011;23596;52.520;13.464;2023-05-29T08:50:19;7.03;;;2.63;;
37753;SDS011;23596;52.520;13.464;2023-05-29T08:52:46;5.90;;;2.40;;
37753;SDS011;23596;52.520;13.464;2023-05-29T08:55:12;5.57;;;2.70;;
37753;SDS011;23596;52.520;13.464;2023-05-29T08:57:38;7.68;;;2.70;;
37753;SDS011;23596;52.520;13.464;2023-05-29T09:02:40;11.30;;;2.83;;
37753;SDS011;23596;52.520;13.464;2023-05-29T09:05:06;13.75;;;3.15;;
37753;SDS011;23596;52.520;13.464;2023-05-29T09:07:33;5.93;;;2.63;;
37753;SDS011;23596;52.520;13.464;2023-05-29T09:09:59;6.43;;;2.60;;
37753;SDS011;23596;52.520;13.464;2023-05-29T09:12:26;11.68;;;2.20;;
37753;SDS011;23596;52.520;13.464;2023-05-29T09:14:51;6.23;;;2.27;;
37753;SDS011;23596;52.520;13.464;2023-05-29T09:17:17;10.65;;;3.75;;
37753;SDS011;23596;52.520;13.464;2023-05-29T09:19:43;8.18;;;2.72;;
37753;SDS011;23596;52.520;13.464;2023-05-29T09:22:10;6.22;;;2.70;;
37753;SDS011;23596;52.520;13.464;2023-05-29T09:24:41;8.82;;;2.88;;
37753;SDS011;23596;52.520;13.464;2023-05-29T09:27:10;10.40;;;3.30;;
37753;SDS011;23596;52.520;13.464;2023-05-29T09:29:39;7.80;;;3.05;;
37753;SDS011;23596;52.520;13.464;2023-05-29T09:34:33;9.45;;;2.78;;
37753;SDS011;23596;52.520;13.464;2023-05-29T09:37:03;8.53;;;2.87;;
37753;SDS011;23596;52.520;13.464;2023-05-29T09:39:54;12.63;;;3.35;;
37753;SDS011;23596;52.520;13.464;2023-05-29T09:42:19;10.02;;;3.28;;
37753;SDS011;23596;52.520;13.464;2023-05-29T09:44:46;8.73;;;3.70;;
37753;SDS011;23596;52.520;13.464;2023-05-29T09:47:16;6.50;;;3.10;;
37753;SDS011;23596;52.520;13.464;2023-05-29T09:49:42;12.30;;;3.10;;
37753;SDS011;23596;52.520;13.464;2023-05-29T09:54:41;6.78;;;2.90;;
37753;SDS011;23596;52.520;13.464;2023-05-29T09:57:11;8.48;;;2.83;;
37753;SDS011;23596;52.520;13.464;2023-05-29T09:59:40;10.70;;;2.90;;
37753;SDS011;23596;52.520;13.464;2023-05-29T10:02:10;11.48;;;3.00;;
37753;SDS011;23596;52.520;13.464;2023-05-29T10:04:38;9.88;;;3.10;;
37753;SDS011;23596;52.520;13.464;2023-05-29T10:07:10;8.45;;;3.20;;
37753;SDS011;23596;52.520;13.464;2023-05-29T10:09:45;10.10;;;2.80;;
37753;SDS011;23596;52.520;13.464;2023-05-29T10:12:15;10.05;;;2.60;;
37753;SDS011;23596;52.520;13.464;2023-05-29T10:14:45;11.63;;;3.05;;
37753;SDS011;23596;52.520;13.464;2023-05-29T10:17:13;10.18;;;3.00;;
37753;SDS011;23596;52.520;13.464;2023-05-29T10:22:07;11.15;;;2.83;;
37753;SDS011;23596;52.520;13.464;2023-05-29T10:24:35;6.47;;;2.40;;
37753;SDS011;23596;52.520;13.464;2023-05-29T10:27:02;6.88;;;3.13;;
37753;SDS011;23596;52.520;13.464;2023-05-29T10:35:04;8.68;;;2.85;;
37753;SDS011;23596;52.520;13.464;2023-05-29T10:40:10;9.75;;;2.90;;
37753;SDS011;23596;52.520;13.464;2023-05-29T10:42:43;6.68;;;2.85;;
37753;SDS011;23596;52.520;13.464;2023-05-29T10:50:45;11.38;;;2.97;;
37753;SDS011;23596;52.520;13.464;2023-05-29T10:53:31;5.88;;;2.72;;
37753;SDS011;23596;52.520;13.464;2023-05-29T10:55:56;9.02;;;2.95;;
37753;SDS011;23596;52.520;13.464;2023-05-29T10:58:25;8.57;;;3.05;;
37753;SDS011;23596;52.520;13.464;2023-05-29T11:00:51;6.32;;;2.83;;
37753;SDS011;23596;52.520;13.464;2023-05-29T11:03:21;6.25;;;2.72;;
37753;SDS011;23596;52.520;13.464;2023-05-29T11:08:52;5.07;;;2.70;;
37753;SDS011;23596;52.520;13.464;2023-05-29T11:13:56;9.65;;;3.35;;
37753;SDS011;23596;52.520;13.464;2023-05-29T11:18:55;6.93;;;2.53;;
37753;SDS011;23596;52.520;13.464;2023-05-29T11:21:23;5.97;;;2.63;;
37753;SDS011;23596;52.520;13.464;2023-05-29T11:23:53;8.07;;;2.85;;
37753;SDS011;23596;52.520;13.464;2023-05-29T11:26:19;8.90;;;2.80;;
37753;SDS011;23596;52.520;13.464;2023-05-29T11:28:47;5.25;;;2.35;;
37753;SDS011;23596;52.520;13.464;2023-05-29T11:31:14;8.80;;;2.50;;
37753;SDS011;23596;52.520;13.464;2023-05-29T11:33:41;5.70;;;2.80;;
37753;SDS011;23596;52.520;13.464;2023-05-29T11:36:13;5.18;;;2.35;;
37753;SDS011;23596;52.520;13.464;2023-05-29T11:38:39;7.03;;;2.53;;
37753;SDS011;23596;52.520;13.464;2023-05-29T11:41:05;8.77;;;2.67;;
37753;SDS011;23596;52.520;13.464;2023-05-29T11:43:31;5.60;;;2.70;;
37753;SDS011;23596;52.520;13.464;2023-05-29T11:45:57;7.47;;;2.42;;
37753;SDS011;23596;52.520;13.464;2023-05-29T11:48:23;7.83;;;2.33;;
37753;SDS011;23596;52.520;13.464;2023-05-29T11:50:48;8.20;;;2.60;;
37753;SDS011;23596;52.520;13.464;2023-05-29T11:53:15;6.20;;;2.47;;
37753;SDS011;23596;52.520;13.464;2023-05-29T11:55:41;11.37;;;3.10;;
37753;SDS011;23596;52.520;13.464;2023-05-29T11:58:06;4.60;;;2.90;;
37753;SDS011;23596;52.520;13.464;2023-05-29T12:00:36;6.77;;;2.57;;
37753;SDS011;23596;52.520;13.464;2023-05-29T12:03:04;9.57;;;2.83;;
37753;SDS011;23596;52.520;13.464;2023-05-29T12:07:57;9.55;;;2.58;;
37753;SDS011;23596;52.520;13.464;2023-05-29T12:10:25;8.95;;;3.10;;
37753;SDS011;23596;52.520;13.464;2023-05-29T12:12:52;7.77;;;2.60;;
37753;SDS011;23596;52.520;13.464;2023-05-29T12:15:23;15.52;;;2.85;;
37753;SDS011;23596;52.520;13.464;2023-05-29T12:17:50;11.43;;;2.88;;
37753;SDS011;23596;52.520;13.464;2023-05-29T12:22:43;6.68;;;2.60;;
37753;SDS011;23596;52.520;13.464;2023-05-29T12:25:10;7.88;;;2.88;;
37753;SDS011;23596;52.520;13.464;2023-05-29T12:27:39;9.50;;;3.28;;
37753;SDS011;23596;52.520;13.464;2023-05-29T12:30:07;7.70;;;3.03;;
37753;SDS011;23596;52.520;13.464;2023-05-29T12:32:38;10.10;;;2.60;;
37753;SDS011;23596;52.520;13.464;2023-05-29T12:35:12;8.13;;;2.75;;
37753;SDS011;23596;52.520;13.464;2023-05-29T12:40:19;10.60;;;3.20;;
37753;SDS011;23596;52.520;13.464;2023-05-29T12:45:23;8.13;;;2.60;;
37753;SDS011;23596;52.520;13.464;2023-05-29T12:47:57;12.57;;;3.08;;
37753;SDS011;23596;52.520;13.464;2023-05-29T12:50:27;9.23;;;3.28;;
37753;SDS011;23596;52.520;13.464;2023-05-29T12:53:00;5.25;;;2.40;;
37753;SDS011;23596;52.520;13.464;2023-05-29T12:55:36;10.52;;;2.60;;
37753;SDS011;23596;52.520;13.464;2023-05-29T12:58:07;7.53;;;2.72;;
37753;SDS011;23596;52.520;13.464;2023-05-29T13:00:37;9.18;;;2.47;;
37753;SDS011;23596;52.520;13.464;2023-05-29T13:03:05;9.57;;;2.78;;
37753;SDS011;23596;52.520;13.464;2023-05-29T13:05:32;9.43;;;3.58;;
37753;SDS011;23596;52.520;13.464;2023-05-29T13:07:58;10.18;;;3.05;;
37753;SDS011;23596;52.520;13.464;2023-05-29T13:10:24;5.87;;;2.77;;
37753;SDS011;23596;52.520;13.464;2023-05-29T13:12:51;8.10;;;2.83;;
37753;SDS011;23596;52.520;13.464;2023-05-29T13:15:19;7.07;;;3.20;;
37753;SDS011;23596;52.520;13.464;2023-05-29T13:17:46;14.18;;;3.22;;
37753;SDS011;23596;52.520;13.464;2023-05-29T13:20:12;8.23;;;3.40;;
37753;SDS011;23596;52.520;13.464;2023-05-29T13:22:39;6.40;;;2.45;;
37753;SDS011;23596;52.520;13.464;2023-05-29T13:25:07;8.15;;;2.90;;
37753;SDS011;23596;52.520;13.464;2023-05-29T13:27:35;6.45;;;2.60;;
37753;SDS011;23596;52.520;13.464;2023-05-29T13:30:02;7.05;;;2.90;;
37753;SDS011;23596;52.520;13.464;2023-05-29T13:32:28;7.20;;;2.75;;
37753;SDS011;23596;52.520;13.464;2023-05-29T13:34:54;4.70;;;2.33;;
37753;SDS011;23596;52.520;13.464;2023-05-29T13:37:20;5.43;;;2.83;;
37753;SDS011;23596;52.520;13.464;2023-05-29T13:39:46;7.82;;;2.78;;
37753;SDS011;23596;52.520;13.464;2023-05-29T13:42:11;5.67;;;2.97;;
37753;SDS011;23596;52.520;13.464;2023-05-29T13:44:37;10.23;;;2.70;;
37753;SDS011;23596;52.520;13.464;2023-05-29T13:47:04;7.10;;;3.22;;
37753;SDS011;23596;52.520;13.464;2023-05-29T13:49:30;7.32;;;3.42;;
37753;SDS011;23596;52.520;13.464;2023-05-29T13:51:56;7.07;;;3.57;;
37753;SDS011;23596;52.520;13.464;2023-05-29T13:54:22;6.90;;;3.40;;
37753;SDS011;23596;52.520;13.464;2023-05-29T13:56:47;8.37;;;2.60;;
37753;SDS011;23596;52.520;13.464;2023-05-29T13:59:13;9.80;;;3.42;;
37753;SDS011;23596;52.520;13.464;2023-05-29T14:01:40;12.13;;;3.22;;
37753;SDS011;23596;52.520;13.464;2023-05-29T14:04:06;12.75;;;5.05;;
37753;SDS011;23596;52.520;13.464;2023-05-29T14:06:32;8.53;;;4.03;;
37753;SDS011;23596;52.520;13.464;2023-05-29T14:08:58;8.15;;;2.97;;
37753;SDS011;23596;52.520;13.464;2023-05-29T14:11:24;5.47;;;2.65;;
37753;SDS011;23596;52.520;13.464;2023-05-29T14:13:50;14.77;;;2.83;;
37753;SDS011;23596;52.520;13.464;2023-05-29T14:16:15;8.57;;;2.97;;
37753;SDS011;23596;52.520;13.464;2023-05-29T14:18:41;11.70;;;3.33;;
37753;SDS011;23596;52.520;13.464;2023-05-29T14:21:07;13.03;;;4.03;;
37753;SDS011;23596;52.520;13.464;2023-05-29T14:23:33;12.10;;;3.40;;
37753;SDS011;23596;52.520;13.464;2023-05-29T14:26:02;10.10;;;2.90;;
37753;SDS011;23596;52.520;13.464;2023-05-29T14:28:27;7.53;;;2.58;;
37753;SDS011;23596;52.520;13.464;2023-05-29T14:30:53;9.97;;;3.83;;
37753;SDS011;23596;52.520;13.464;2023-05-29T14:33:19;9.83;;;3.73;;
37753;SDS011;23596;52.520;13.464;2023-05-29T14:35:44;17.50;;;4.60;;
37753;SDS011;23596;52.520;13.464;2023-05-29T14:38:10;16.73;;;5.13;;
37753;SDS011;23596;52.520;13.464;2023-05-29T14:40:36;12.47;;;3.63;;
37753;SDS011;23596;52.520;13.464;2023-05-29T14:43:02;5.32;;;2.30;;
37753;SDS011;23596;52.520;13.464;2023-05-29T14:45:28;7.55;;;3.10;;
37753;SDS011;23596;52.520;13.464;2023-05-29T14:47:55;14.02;;;3.50;;
37753;SDS011;23596;52.520;13.464;2023-05-29T14:50:20;9.20;;;2.80;;
37753;SDS011;23596;52.520;13.464;2023-05-29T14:52:46;22.90;;;8.93;;
37753;SDS011;23596;52.520;13.464;2023-05-29T14:55:15;18.92;;;10.55;;
37753;SDS011;23596;52.520;13.464;2023-05-29T14:57:41;8.77;;;3.80;;
37753;SDS011;23596;52.520;13.464;2023-05-29T15:00:06;10.80;;;3.38;;
37753;SDS011;23596;52.520;13.464;2023-05-29T15:02:33;9.90;;;3.88;;
37753;SDS011;23596;52.520;13.464;2023-05-29T15:04:59;11.65;;;5.57;;
37753;SDS011;23596;52.520;13.464;2023-05-29T15:07:24;13.90;;;6.72;;
37753;SDS011;23596;52.520;13.464;2023-05-29T15:09:50;7.38;;;3.00;;
37753;SDS011;23596;52.520;13.464;2023-05-29T15:12:16;12.68;;;4.43;;
37753;SDS011;23596;52.520;13.464;2023-05-29T15:14:42;12.98;;;2.83;;
37753;SDS011;23596;52.520;13.464;2023-05-29T15:17:08;7.72;;;3.03;;
37753;SDS011;23596;52.520;13.464;2023-05-29T15:19:33;13.10;;;3.70;;
37753;SDS011;23596;52.520;13.464;2023-05-29T15:21:59;12.82;;;2.50;;